Aviation Digital Data Service (ADDS)

Output produced by METARs form (2058 UTC 29 May 2017)
found at http://www.aviationweather.gov/adds/metars/
 
UATE 292030Z 04004MPS CAVOK 09/05 Q1021 R30/0///70 NOSIG RMK QFE764/1019
TAF UATE 291700Z 2918/3018 03005MPS CAVOK TX24/3009Z TN13/3002Z 
     BECMG 3000/3002 09007MPS
       
UATT 292030Z 29004MPS CAVOK 05/00 Q1015 R31/70D NOSIG RMK QFE741/0989
TAF UATT 291700Z 2918/3018 31007MPS 9999 SCT040 TX20/3011Z TN02/3000Z 
     TEMPO 2918/3005 3000 BR FU BKN010 
     FM300500 23009MPS 9999 NSC 
     TEMPO 3005/3018 25014MPS
       
UAAA 292030Z 19002MPS 170V240 9999 SCT050CB BKN100 19/11 Q1010 R23R/CLRD65 NOSIG
TAF UAAA 291700Z 2918/3018 22006MPS 9999 BKN050CB BKN100 TX27/3009Z TN12/3001Z 
     TEMPO 2918/3006 VRB17MPS 2000 TSRA SQ BKN020CB BKN100 
     BECMG 3006/3007 32006MPS 
     TEMPO 3006/3013 VRB15MPS 3000 TSRA SQ BKN030CB OVC100
       
UAAA 292030Z 19002MPS 170V240 9999 SCT050CB BKN100 19/11 Q1010 R23R/CLRD65 NOSIG
TAF UAAA 291700Z 2918/3018 22006MPS 9999 BKN050CB BKN100 TX27/3009Z TN12/3001Z 
     TEMPO 2918/3006 VRB17MPS 2000 TSRA SQ BKN020CB BKN100 
     BECMG 3006/3007 32006MPS 
     TEMPO 3006/3013 VRB15MPS 3000 TSRA SQ BKN030CB OVC100
       
TAF COR UAAH 291105Z 2912/2921 19005MPS 9999 SCT030CB BKN100 
     TEMPO 2912/2921 VRB15MPS -TSRA SQ
       
UACC 292030Z 19005MPS 9000 -SHRA SCT040CB BKN053 13/12 Q0996 R22/2/0260 TEMPO VRB15MPS 3000 TSRA SQ BKN020CB RMK QFE716/0955
TAF UACC 291700Z 2918/3018 23006MPS 9999 SCT020CB BKN100 TX15/2918Z TN07/3012Z 
     TEMPO 2918/3002 VRB20MPS 3000 TSRA SQ BKN015CB 
     BECMG 3002/3004 31009G14MPS 
     TEMPO 3002/3013 32012G17MPS 4000 SHRA BKN020CB 
     FM301500 24006MPS 9999 SCT020 SCT100
       
TAF UACK 291100Z 2912/2921 22008MPS 9999 BKN020CB BKN100 
     TEMPO 2912/2916 VRB17MPS 2000 TSRA SQ BKN008CB
       
UADD 292000Z 23005MPS 9999 NSC 18/11 Q1012 NOSIG RMK QFE702/0937
TAF UADD 292000Z 2921/3006 24005G10MPS 9999 BKN050CB OVC100
       
UAII 292030Z 23002MPS 9999 SCT050CB BKN100 18/12 Q1013 R10/0///70 NOSIG RMK QFE725/0967
TAF UAII 291700Z 2918/3018 23004G09MPS 7000 BKN040CB BKN100 TX26/3009Z TN15/3001Z 
     TEMPO 2918/2924 VRB15MPS 3000 -TSRA SCT010 BKN020CB 
     TEMPO 3000/3012 29007MPS SCT050
       
TAF UAKD 291700Z 2918/3003 26013MPS 9999 BKN030CB BKN100 
     TEMPO 2918/2921 27017MPS -SHRA 
     TEMPO 2921/3003 30018MPS
       
UAKK 292030Z 19006MPS 9999 SCT050CB 12/09 Q0999 R23/2///60 TEMPO VRB13MPS 2000 TSRA BKN015CB RMK QFE703/0938
TAF UAKK 291700Z 2918/3018 18007MPS 9999 BKN030CB BKN100 TH11/3008Z TN06/3017Z 
     TEMPO 2918/3002 VRB13MPS 1500 TSRA SQ BKN010CB 
     FM300200 23012MPS 9999 BKN040CB OVC100 
     TEMPO 3002/3013 25018G23MPS 3000 TSRA SCT010 BKN030CB 
     BECMG 3013/3015 26008MPS
       
UAOO 292030Z 32008MPS 9999 SCT040CB 13/03 Q1013 R23/CLRD70 NOSIG RMK QFE748/0998
TAF AMD UAOO 292000Z 2921/3007 33007MPS 9999BKN033CB OVC100 
     TEMPO 2921/2923 27015MPS 
     TEMPO 3000/3007 BKN040
       
UARR 292000Z 18004MPS 9999 SCT050CB BKN083 08/03 Q1015 R04/CLRD70 NOSIG RMK QFE758/1010
TAF UARR 291701Z 2918/3003 23008G13MPS 9999 BKN020CB 
     TEMPO 2918/2924 21005MPS
       
UASK 292000Z 15006MPS 9999 SCT042CB BKN140 23/05 Q1003 R12/090060 NOSIG RMK QFE727/0969
TAF UASK 292000Z 2921/3006 16008G13MPS 9999 BKN025CB BKN100 
     TEMPO 2921/3003 VRB18MPS 3100 TSRA SQ
       
UASP 292030Z 21005MPS 9999 SCT040CB BKN130 17/13 Q0998 R21/0///70 NOSIG RMK QFE737/0983
TAF UASP 292000Z 2921/3006 20005MPS 9999 BKN020CB BKN100 
     TEMPO 2921/3003 VRB15MPS 3000 -TSRA FU SCT006 
     TEMPO 3003/3006 VRB18MPS 3000 -TSRA SQ SCT007
       
TAF UASS 291100Z 2912/2921 22006G11MPS 9999 BKN040 BKN100
       
UATE 292030Z 04004MPS CAVOK 09/05 Q1021 R30/0///70 NOSIG RMK QFE764/1019
TAF UATE 291700Z 2918/3018 03005MPS CAVOK TX24/3009Z TN13/3002Z 
     BECMG 3000/3002 09007MPS
       
UATG 292030Z 00000MPS CAVOK 07/01 Q1020 R32/CLRD70 NOSIG RMK QFE767/1022
TAF UATG 291700Z 2918/3018 VRB02MPS 9999 SCT033 TX23/3011Z TN08/3001Z 
     BECMG 2921/2923 3000 BR SCT010 
     TEMPO 3000/3003 0500 FG VV002 
     BECMG 3003/3004 18006MPS 9999 NSW
       
UATT 292030Z 29004MPS CAVOK 05/00 Q1015 R31/70D NOSIG RMK QFE741/0989
TAF UATT 291700Z 2918/3018 31007MPS 9999 SCT040 TX20/3011Z TN02/3000Z 
     TEMPO 2918/3005 3000 BR FU BKN010 
     FM300500 23009MPS 9999 NSC 
     TEMPO 3005/3018 25014MPS
       
UAUU 292030Z 33006MPS CAVOK 02/M02 Q1009 R33/150055 NOSIG RMK QFE741/0988
TAF UAUU 291700Z 2918/3003 34007MPS 9999 SCT006 BKN010CB 
     TEMPO 2918/2921 35012MPS 
     BECMG 2921/2922 34005MPS 
     TEMPO 2922/3003 2000 BR
       
UACC 292030Z 19005MPS 9000 -SHRA SCT040CB BKN053 13/12 Q0996 R22/2/0260 TEMPO VRB15MPS 3000 TSRA SQ BKN020CB RMK QFE716/0955
TAF UACC 291700Z 2918/3018 23006MPS 9999 SCT020CB BKN100 TX15/2918Z TN07/3012Z 
     TEMPO 2918/3002 VRB20MPS 3000 TSRA SQ BKN015CB 
     BECMG 3002/3004 31009G14MPS 
     TEMPO 3002/3013 32012G17MPS 4000 SHRA BKN020CB 
     FM301500 24006MPS 9999 SCT020 SCT100
       
UATG 292030Z 00000MPS CAVOK 07/01 Q1020 R32/CLRD70 NOSIG RMK QFE767/1022
TAF UATG 291700Z 2918/3018 VRB02MPS 9999 SCT033 TX23/3011Z TN08/3001Z 
     BECMG 2921/2923 3000 BR SCT010 
     TEMPO 3000/3003 0500 FG VV002 
     BECMG 3003/3004 18006MPS 9999 NSW
       
TAF COR UAAH 291105Z 2912/2921 19005MPS 9999 SCT030CB BKN100 
     TEMPO 2912/2921 VRB15MPS -TSRA SQ
       
UAKK 292030Z 19006MPS 9999 SCT050CB 12/09 Q0999 R23/2///60 TEMPO VRB13MPS 2000 TSRA BKN015CB RMK QFE703/0938
TAF UAKK 291700Z 2918/3018 18007MPS 9999 BKN030CB BKN100 TH11/3008Z TN06/3017Z 
     TEMPO 2918/3002 VRB13MPS 1500 TSRA SQ BKN010CB 
     FM300200 23012MPS 9999 BKN040CB OVC100 
     TEMPO 3002/3013 25018G23MPS 3000 TSRA SCT010 BKN030CB 
     BECMG 3013/3015 26008MPS
       
UAUU 292030Z 33006MPS CAVOK 02/M02 Q1009 R33/150055 NOSIG RMK QFE741/0988
TAF UAUU 291700Z 2918/3003 34007MPS 9999 SCT006 BKN010CB 
     TEMPO 2918/2921 35012MPS 
     BECMG 2921/2922 34005MPS 
     TEMPO 2922/3003 2000 BR
       
TAF UASS 291100Z 2912/2921 22006G11MPS 9999 BKN040 BKN100
       
UAII 292030Z 23002MPS 9999 SCT050CB BKN100 18/12 Q1013 R10/0///70 NOSIG RMK QFE725/0967
TAF UAII 291700Z 2918/3018 23004G09MPS 7000 BKN040CB BKN100 TX26/3009Z TN15/3001Z 
     TEMPO 2918/2924 VRB15MPS 3000 -TSRA SCT010 BKN020CB 
     TEMPO 3000/3012 29007MPS SCT050
       
UARR 292000Z 18004MPS 9999 SCT050CB BKN083 08/03 Q1015 R04/CLRD70 NOSIG RMK QFE758/1010
TAF UARR 291701Z 2918/3003 23008G13MPS 9999 BKN020CB 
     TEMPO 2918/2924 21005MPS
       
UASK 292000Z 15006MPS 9999 SCT042CB BKN140 23/05 Q1003 R12/090060 NOSIG RMK QFE727/0969
TAF UASK 292000Z 2921/3006 16008G13MPS 9999 BKN025CB BKN100 
     TEMPO 2921/3003 VRB18MPS 3100 TSRA SQ
       
TAF UAKD 291700Z 2918/3003 26013MPS 9999 BKN030CB BKN100 
     TEMPO 2918/2921 27017MPS -SHRA 
     TEMPO 2921/3003 30018MPS